Time;durP1;ratioP1;P1;durP2;ratioP2;P2;SDS_P1;SDS_P2;PMS_P1;PMS_P2;Temp;Humidity;BMP_temperature;BMP_pressure;BME280_temperature;BME280_humidity;BME280_pressure;Samples;Min_cycle;Max_cycle;Signal;HPM_P1;HPM_P2
2020/07/06 00:01:43;;;;;;;0.8;0.6;;;;;;;20.29;100;957.2738;;;;
2020/07/06 00:04:08;;;;;;;1.5;0.7;;;;;;;20.23;100;957.2272;;;;
2020/07/06 00:06:33;;;;;;;2.3;0.9;;;;;;;20.19;100;957.2198;;;;
2020/07/06 00:08:58;;;;;;;1.2;0.8;;;;;;;20.18;100;957.204;;;;
2020/07/06 00:11:23;;;;;;;1.3;0.7;;;;;;;20.15;100;957.1727;;;;
2020/07/06 00:13:49;;;;;;;1.9;0.8;;;;;;;20.06;100;957.2109;;;;
2020/07/06 00:16:14;;;;;;;2.7;0.9;;;;;;;19.98;100;957.1614;;;;
2020/07/06 00:18:42;;;;;;;3.5;0.8;;;;;;;20.01;100;957.1451;;;;
2020/07/06 00:21:07;;;;;;;1.3;0.7;;;;;;;19.99;100;957.1522;;;;
2020/07/06 00:23:32;;;;;;;1.7;0.7;;;;;;;20.01;100;957.1733;;;;
2020/07/06 00:25:57;;;;;;;1.2;0.7;;;;;;;19.97;100;957.1955;;;;
2020/07/06 00:28:24;;;;;;;1.5;0.5;;;;;;;20.03;100;957.1661;;;;
2020/07/06 00:30:49;;;;;;;2.9;0.8;;;;;;;20.06;100;957.2011;;;;
2020/07/06 00:33:17;;;;;;;1;0.6;;;;;;;20.1;100;957.1563;;;;
2020/07/06 00:35:42;;;;;;;2.8;1;;;;;;;20.11;100;957.1479;;;;
2020/07/06 00:38:07;;;;;;;1.3;0.7;;;;;;;20.11;100;957.1936;;;;
2020/07/06 00:40:32;;;;;;;0.9;0.7;;;;;;;20.05;100;957.2145;;;;
2020/07/06 00:42:59;;;;;;;1;0.7;;;;;;;20.13;100;957.2128;;;;
2020/07/06 00:45:25;;;;;;;1.1;0.6;;;;;;;20.03;100;957.1976;;;;
2020/07/06 00:47:52;;;;;;;1.3;0.7;;;;;;;20.05;100;957.2313;;;;
2020/07/06 00:50:17;;;;;;;1;0.8;;;;;;;20.04;100;957.1998;;;;
2020/07/06 00:52:43;;;;;;;1.5;0.7;;;;;;;20.02;100;957.1797;;;;
2020/07/06 00:55:08;;;;;;;2;0.7;;;;;;;20.08;100;957.2123;;;;
2020/07/06 00:57:35;;;;;;;2.3;0.8;;;;;;;20.01;100;957.1581;;;;
2020/07/06 01:00:00;;;;;;;1.3;0.8;;;;;;;20.09;100;957.1161;;;;
2020/07/06 01:02:27;;;;;;;1.2;0.8;;;;;;;20.1;100;957.1438;;;;
2020/07/06 01:04:56;;;;;;;1.3;0.7;;;;;;;20.15;100;957.1172;;;;
2020/07/06 01:07:21;;;;;;;2.2;0.7;;;;;;;20.18;100;957.1256;;;;
2020/07/06 01:09:46;;;;;;;0.7;0.6;;;;;;;20.18;100;957.1049;;;;
2020/07/06 01:12:11;;;;;;;1.2;0.7;;;;;;;20.19;100;957.0858;;;;
2020/07/06 01:14:43;;;;;;;1.3;0.7;;;;;;;20.14;100;957.0828;;;;
2020/07/06 01:17:09;;;;;;;1.9;0.8;;;;;;;20.1;100;957.0836;;;;
2020/07/06 01:19:34;;;;;;;0.9;0.6;;;;;;;20.01;100;957.05;;;;
2020/07/06 01:22:02;;;;;;;1;0.6;;;;;;;19.99;100;957.025;;;;
2020/07/06 01:24:27;;;;;;;1.6;0.7;;;;;;;19.95;100;957.0125;;;;
2020/07/06 01:27:00;;;;;;;1.3;0.7;;;;;;;19.94;100;957.0001;;;;
2020/07/06 01:29:26;;;;;;;3.7;0.8;;;;;;;19.91;100;956.9634;;;;
2020/07/06 01:31:51;;;;;;;0.7;0.6;;;;;;;19.9;100;956.9517;;;;
2020/07/06 01:34:18;;;;;;;1.9;0.8;;;;;;;19.87;100;956.9051;;;;
2020/07/06 01:36:43;;;;;;;1.3;0.6;;;;;;;19.88;100;956.8906;;;;
2020/07/06 01:39:08;;;;;;;1.9;0.7;;;;;;;19.85;100;956.8672;;;;
2020/07/06 01:41:35;;;;;;;1.1;0.6;;;;;;;19.87;100;956.8167;;;;
2020/07/06 01:44:02;;;;;;;3.5;0.8;;;;;;;19.81;100;956.845;;;;
2020/07/06 01:46:30;;;;;;;0.5;0.5;;;;;;;19.82;100;956.7852;;;;
2020/07/06 01:48:58;;;;;;;1.2;0.6;;;;;;;19.76;100;956.7411;;;;
2020/07/06 01:51:23;;;;;;;2.4;0.8;;;;;;;19.75;100;956.7363;;;;
2020/07/06 01:53:48;;;;;;;2.7;0.8;;;;;;;19.76;100;956.7023;;;;
2020/07/06 01:56:19;;;;;;;1.1;0.8;;;;;;;19.74;100;956.6661;;;;
2020/07/06 01:58:48;;;;;;;1.5;0.7;;;;;;;19.68;100;956.6386;;;;
2020/07/06 02:01:13;;;;;;;2;0.7;;;;;;;19.71;100;956.6049;;;;
2020/07/06 02:03:43;;;;;;;2.9;0.8;;;;;;;19.69;100;956.6318;;;;
2020/07/06 02:06:08;;;;;;;0.8;0.7;;;;;;;19.6;100;956.6201;;;;
2020/07/06 02:08:36;;;;;;;1.9;0.7;;;;;;;19.64;100;956.5886;;;;
2020/07/06 02:11:01;;;;;;;1.7;0.8;;;;;;;19.6;100;956.6234;;;;
2020/07/06 02:13:28;;;;;;;1.7;0.8;;;;;;;19.53;100;956.5704;;;;
2020/07/06 02:15:56;;;;;;;0.9;0.8;;;;;;;19.53;100;956.5759;;;;
2020/07/06 02:18:21;;;;;;;1.4;0.7;;;;;;;19.57;100;956.5772;;;;
2020/07/06 02:20:48;;;;;;;3.5;0.9;;;;;;;19.55;100;956.5185;;;;
2020/07/06 02:23:13;;;;;;;2.6;0.8;;;;;;;19.57;100;956.5233;;;;
2020/07/06 02:25:45;;;;;;;1.4;0.8;;;;;;;19.58;100;956.5262;;;;
2020/07/06 02:28:10;;;;;;;2;0.9;;;;;;;19.57;100;956.4934;;;;
2020/07/06 02:30:42;;;;;;;2.8;0.9;;;;;;;19.59;100;956.4418;;;;
2020/07/06 02:33:11;;;;;;;2.3;0.9;;;;;;;19.53;100;956.3742;;;;
2020/07/06 02:35:40;;;;;;;1.8;0.7;;;;;;;19.56;100;956.3497;;;;
2020/07/06 02:38:05;;;;;;;1.8;0.8;;;;;;;19.52;100;956.3406;;;;
2020/07/06 02:40:33;;;;;;;1.9;0.7;;;;;;;19.49;100;956.3495;;;;
2020/07/06 02:43:02;;;;;;;1.6;0.7;;;;;;;19.49;100;956.3083;;;;
2020/07/06 02:45:33;;;;;;;2.7;0.9;;;;;;;19.46;100;956.3625;;;;
2020/07/06 02:48:00;;;;;;;1.7;1;;;;;;;19.4;100;956.3524;;;;
2020/07/06 02:50:25;;;;;;;3.9;0.9;;;;;;;19.37;100;956.3472;;;;
2020/07/06 02:52:52;;;;;;;1.8;0.8;;;;;;;19.38;100;956.3156;;;;
2020/07/06 02:55:17;;;;;;;2;0.9;;;;;;;19.35;100;956.2856;;;;
2020/07/06 02:57:44;;;;;;;2.8;0.8;;;;;;;19.35;100;956.2061;;;;
2020/07/06 03:00:09;;;;;;;3;1;;;;;;;19.35;100;956.1641;;;;
2020/07/06 03:02:35;;;;;;;1.2;0.8;;;;;;;19.33;100;956.1382;;;;
2020/07/06 03:05:04;;;;;;;0.9;0.7;;;;;;;19.32;100;956.1273;;;;
2020/07/06 03:07:35;;;;;;;1.5;0.9;;;;;;;19.32;100;956.0754;;;;
2020/07/06 03:10:02;;;;;;;1.6;1;;;;;;;19.32;100;956.1133;;;;
2020/07/06 03:12:27;;;;;;;1.7;1.1;;;;;;;19.29;100;956.1091;;;;
2020/07/06 03:14:56;;;;;;;2;0.9;;;;;;;19.25;100;956.1356;;;;
2020/07/06 03:17:22;;;;;;;1.6;0.8;;;;;;;19.27;100;956.0162;;;;
2020/07/06 03:19:50;;;;;;;2.3;0.9;;;;;;;19.22;100;956.075;;;;
2020/07/06 03:22:56;;;;;;;3.9;0.9;;;;;;;19.22;100;955.9906;;;;
2020/07/06 03:25:22;;;;;;;2.5;1.1;;;;;;;19.16;100;956.1068;;;;
2020/07/06 03:27:49;;;;;;;2.5;0.9;;;;;;;19.14;100;956.1139;;;;
2020/07/06 03:30:14;;;;;;;2.6;1.1;;;;;;;19.14;100;956.0533;;;;
2020/07/06 03:32:44;;;;;;;3.1;1.2;;;;;;;19.1;100;956.05;;;;
2020/07/06 03:35:14;;;;;;;2.9;0.9;;;;;;;18.98;100;956.0302;;;;
2020/07/06 03:37:43;;;;;;;1.8;1;;;;;;;19.03;100;956.0211;;;;
2020/07/06 03:40:08;;;;;;;1.7;1.1;;;;;;;19.04;100;956.0564;;;;
2020/07/06 03:42:35;;;;;;;1.9;1;;;;;;;19.04;100;956.0662;;;;
2020/07/06 03:45:00;;;;;;;2.3;0.9;;;;;;;18.93;100;956.0551;;;;
2020/07/06 03:47:25;;;;;;;3.1;1;;;;;;;18.92;100;956.0266;;;;
2020/07/06 03:50:00;;;;;;;3.5;1;;;;;;;18.84;100;956.038;;;;
2020/07/06 03:52:26;;;;;;;1.8;1.1;;;;;;;18.84;100;956.0279;;;;
2020/07/06 03:55:00;;;;;;;4.1;1.1;;;;;;;18.77;100;956.0367;;;;
2020/07/06 03:57:25;;;;;;;1.9;1.1;;;;;;;18.86;100;956.0425;;;;
2020/07/06 03:59:50;;;;;;;3.3;1.3;;;;;;;18.87;100;955.9969;;;;
2020/07/06 04:02:39;;;;;;;2.5;1.1;;;;;;;18.87;100;955.9746;;;;
2020/07/06 04:05:08;;;;;;;2.9;1.1;;;;;;;18.92;100;955.9819;;;;
2020/07/06 04:07:42;;;;;;;2.1;0.9;;;;;;;18.96;100;955.9604;;;;
2020/07/06 04:10:56;;;;;;;2;0.9;;;;;;;18.94;100;955.8923;;;;
2020/07/06 04:13:21;;;;;;;1.4;1;;;;;;;18.93;100;955.8594;;;;
2020/07/06 04:15:49;;;;;;;2.2;1.1;;;;;;;18.98;100;955.8725;;;;
2020/07/06 04:18:14;;;;;;;2.5;1;;;;;;;18.97;100;955.8636;;;;
2020/07/06 04:20:43;;;;;;;4.3;1.1;;;;;;;19.08;100;955.8895;;;;
2020/07/06 04:23:09;;;;;;;2.6;0.9;;;;;;;19.05;100;955.8842;;;;
2020/07/06 04:25:34;;;;;;;2.3;1;;;;;;;19.1;100;955.8617;;;;
2020/07/06 04:28:01;;;;;;;2.5;0.9;;;;;;;19.18;100;955.8414;;;;
2020/07/06 04:30:36;;;;;;;4.3;1.3;;;;;;;19.14;100;955.8345;;;;
2020/07/06 04:33:01;;;;;;;1.7;0.9;;;;;;;19.23;100;955.7534;;;;
2020/07/06 04:35:31;;;;;;;3.7;1.1;;;;;;;19.29;100;955.7711;;;;
2020/07/06 04:37:58;;;;;;;3.1;1.1;;;;;;;19.32;100;955.6687;;;;
2020/07/06 04:40:23;;;;;;;3.5;1.1;;;;;;;19.38;100;955.6635;;;;
2020/07/06 04:42:50;;;;;;;2;1.1;;;;;;;19.46;100;955.6063;;;;
2020/07/06 04:45:15;;;;;;;1.7;0.8;;;;;;;19.51;100;955.5508;;;;
2020/07/06 04:47:40;;;;;;;1.4;0.9;;;;;;;19.55;100;955.5706;;;;
2020/07/06 04:50:09;;;;;;;2.8;1.4;;;;;;;19.62;100;955.6175;;;;
2020/07/06 04:52:35;;;;;;;2.7;0.7;;;;;;;19.65;100;955.632;;;;
2020/07/06 04:55:04;;;;;;;2.6;0.9;;;;;;;19.76;100;955.603;;;;
2020/07/06 04:57:29;;;;;;;4.1;1;;;;;;;19.85;100;955.6267;;;;
2020/07/06 04:59:57;;;;;;;4.1;1.2;;;;;;;19.9;100;955.6842;;;;
2020/07/06 05:02:29;;;;;;;2.8;1;;;;;;;19.99;100;955.6573;;;;
2020/07/06 05:05:02;;;;;;;3.4;1;;;;;;;20.06;100;955.7083;;;;
2020/07/06 05:07:32;;;;;;;1.7;1;;;;;;;20.12;100;955.722;;;;
2020/07/06 05:09:58;;;;;;;2.4;1.1;;;;;;;20.17;100;955.7017;;;;
2020/07/06 05:12:23;;;;;;;3.2;1.2;;;;;;;20.3;100;955.6836;;;;
2020/07/06 05:14:48;;;;;;;2.2;0.9;;;;;;;20.37;100;955.6933;;;;
2020/07/06 05:17:14;;;;;;;4.4;1.2;;;;;;;20.47;100;955.6965;;;;
2020/07/06 05:19:39;;;;;;;2;1;;;;;;;20.56;100;955.7286;;;;
2020/07/06 05:22:05;;;;;;;3.2;0.9;;;;;;;20.6;100;955.7108;;;;
2020/07/06 05:24:31;;;;;;;3.2;1;;;;;;;20.69;100;955.7241;;;;
2020/07/06 05:26:57;;;;;;;3.6;0.9;;;;;;;20.71;100;955.7129;;;;
2020/07/06 05:29:22;;;;;;;1.7;0.7;;;;;;;20.76;100;955.7737;;;;
2020/07/06 05:31:55;;;;;;;5.7;1.3;;;;;;;20.84;100;955.7633;;;;
2020/07/06 05:34:32;;;;;;;2.4;0.8;;;;;;;20.89;100;955.7612;;;;
2020/07/06 05:37:00;;;;;;;5;1;;;;;;;20.95;100;955.7759;;;;
2020/07/06 05:39:25;;;;;;;3.7;0.8;;;;;;;21.03;100;955.8466;;;;
2020/07/06 05:41:52;;;;;;;2.1;0.8;;;;;;;21.03;100;955.8233;;;;
2020/07/06 05:44:17;;;;;;;2.5;0.8;;;;;;;21;100;955.8831;;;;
2020/07/06 05:46:42;;;;;;;3.9;0.9;;;;;;;21.08;100;955.9205;;;;
2020/07/06 05:49:15;;;;;;;4.1;0.8;;;;;;;21.07;100;955.9507;;;;
2020/07/06 05:51:43;;;;;;;2.4;0.8;;;;;;;21.07;100;955.9526;;;;
2020/07/06 05:54:08;;;;;;;1.9;0.9;;;;;;;21.05;100;956.0348;;;;
2020/07/06 05:56:33;;;;;;;1.7;0.9;;;;;;;21.03;100;956.0438;;;;
2020/07/06 05:59:01;;;;;;;2.6;0.9;;;;;;;21;100;956.1127;;;;
2020/07/06 06:01:30;;;;;;;5;1.1;;;;;;;20.91;100;956.115;;;;
2020/07/06 06:04:00;;;;;;;2.8;0.9;;;;;;;20.91;100;956.1682;;;;
2020/07/06 06:06:27;;;;;;;4.7;0.8;;;;;;;21;100;956.2245;;;;
2020/07/06 06:09:06;;;;;;;2;0.9;;;;;;;20.96;100;956.1656;;;;
2020/07/06 06:11:33;;;;;;;3.6;1;;;;;;;21.1;100;956.2219;;;;
2020/07/06 06:13:58;;;;;;;2.8;1.1;;;;;;;21.08;100;956.256;;;;
2020/07/06 06:16:23;;;;;;;2.1;1.1;;;;;;;20.84;100;956.3398;;;;
2020/07/06 06:18:51;;;;;;;2.4;0.9;;;;;;;20.79;100;956.3867;;;;
2020/07/06 06:21:16;;;;;;;2.7;1.1;;;;;;;20.7;100;956.3931;;;;
2020/07/06 06:23:46;;;;;;;2;0.9;;;;;;;20.49;100;956.6027;;;;
2020/07/06 06:26:20;;;;;;;2.6;1;;;;;;;20.28;100;956.5813;;;;
2020/07/06 06:28:56;;;;;;;4.6;1.5;;;;;;;20.12;100;956.6942;;;;
2020/07/06 06:31:23;;;;;;;4.2;1.3;;;;;;;19.89;100;956.8026;;;;
2020/07/06 06:33:50;;;;;;;1.2;0.7;;;;;;;19.78;100;956.7632;;;;
2020/07/06 06:36:15;;;;;;;1.2;0.7;;;;;;;19.69;100;956.8833;;;;
2020/07/06 06:38:41;;;;;;;0.8;0.6;;;;;;;19.24;100;956.9075;;;;
2020/07/06 06:41:06;;;;;;;1.1;0.5;;;;;;;19.05;100;956.8754;;;;
2020/07/06 06:43:32;;;;;;;0.8;0.4;;;;;;;18.96;100;956.8943;;;;
2020/07/06 06:45:57;;;;;;;0.7;0.4;;;;;;;18.87;100;957.0422;;;;
2020/07/06 06:48:25;;;;;;;1;0.6;;;;;;;18.71;100;957.1437;;;;
2020/07/06 06:50:50;;;;;;;0.8;0.5;;;;;;;18.61;100;957.1209;;;;
2020/07/06 06:53:15;;;;;;;3.1;0.7;;;;;;;18.54;100;957.1217;;;;
2020/07/06 06:55:41;;;;;;;1.4;0.5;;;;;;;18.7;100;957.121;;;;
2020/07/06 06:58:07;;;;;;;1.3;0.6;;;;;;;18.51;100;957.2453;;;;
2020/07/06 07:00:33;;;;;;;2.4;0.7;;;;;;;18.29;100;957.1415;;;;
2020/07/06 07:02:59;;;;;;;1.3;0.6;;;;;;;18.39;100;957.1356;;;;
2020/07/06 07:05:24;;;;;;;2.4;0.7;;;;;;;18.27;100;957.1969;;;;
2020/07/06 07:07:50;;;;;;;0.6;0.6;;;;;;;18.14;100;957.1841;;;;
2020/07/06 07:10:15;;;;;;;0.8;0.6;;;;;;;18.06;100;957.331;;;;
2020/07/06 07:12:41;;;;;;;1.7;0.6;;;;;;;17.9;100;957.3779;;;;
2020/07/06 07:15:06;;;;;;;2.2;0.7;;;;;;;17.8;100;957.4732;;;;
2020/07/06 07:17:34;;;;;;;0.7;0.7;;;;;;;17.86;100;957.5483;;;;
2020/07/06 07:19:59;;;;;;;1.8;0.9;;;;;;;17.85;100;957.601;;;;
2020/07/06 07:22:25;;;;;;;1.4;0.8;;;;;;;17.76;100;957.6206;;;;
2020/07/06 07:24:50;;;;;;;1;0.7;;;;;;;17.6;100;957.4983;;;;
2020/07/06 07:27:16;;;;;;;1;0.7;;;;;;;17.56;100;957.4725;;;;
2020/07/06 07:29:42;;;;;;;0.9;0.7;;;;;;;17.59;100;957.4672;;;;
2020/07/06 07:32:07;;;;;;;0.8;0.7;;;;;;;17.54;100;957.4166;;;;
2020/07/06 07:34:32;;;;;;;0.8;0.8;;;;;;;17.55;100;957.4039;;;;
2020/07/06 07:37:01;;;;;;;1.3;0.8;;;;;;;17.42;100;957.3751;;;;
2020/07/06 07:39:26;;;;;;;1.2;1.1;;;;;;;17.38;100;957.421;;;;
2020/07/06 07:41:54;;;;;;;1.1;0.9;;;;;;;17.63;100;957.5176;;;;
2020/07/06 07:44:19;;;;;;;1.7;0.9;;;;;;;17.46;100;957.6383;;;;
2020/07/06 07:46:44;;;;;;;1.8;0.9;;;;;;;17.49;100;957.6223;;;;
2020/07/06 07:49:14;;;;;;;2.9;1.1;;;;;;;17.59;100;957.5545;;;;
2020/07/06 07:51:39;;;;;;;3;1.1;;;;;;;17.37;100;957.6138;;;;
2020/07/06 07:54:08;;;;;;;2;1;;;;;;;17.37;100;957.678;;;;
2020/07/06 07:56:33;;;;;;;1.2;1;;;;;;;17.6;100;957.6153;;;;
2020/07/06 07:58:59;;;;;;;1.2;1;;;;;;;17.81;100;957.5975;;;;
2020/07/06 08:01:24;;;;;;;0.7;0.7;;;;;;;17.79;100;957.5466;;;;
2020/07/06 08:03:55;;;;;;;2;0.9;;;;;;;17.85;100;957.4724;;;;
2020/07/06 08:06:24;;;;;;;1.5;0.9;;;;;;;17.77;100;957.4543;;;;
2020/07/06 08:08:49;;;;;;;1.3;1;;;;;;;17.71;100;957.5909;;;;
2020/07/06 08:11:19;;;;;;;1.6;0.9;;;;;;;17.87;100;957.5678;;;;
2020/07/06 08:13:45;;;;;;;1.3;1;;;;;;;17.74;100;957.6145;;;;
2020/07/06 08:16:11;;;;;;;2.3;1.2;;;;;;;17.9;100;957.6344;;;;
2020/07/06 08:18:38;;;;;;;1.4;1.1;;;;;;;17.98;100;957.6398;;;;
2020/07/06 08:21:03;;;;;;;1.6;1.3;;;;;;;17.85;100;957.6431;;;;
2020/07/06 08:23:29;;;;;;;1.9;1.4;;;;;;;17.8;100;957.6719;;;;
2020/07/06 08:25:54;;;;;;;1.4;0.9;;;;;;;17.7;100;957.5917;;;;
2020/07/06 08:28:19;;;;;;;2.1;1;;;;;;;17.77;100;957.6;;;;
2020/07/06 08:30:44;;;;;;;2;1.1;;;;;;;17.78;100;957.6465;;;;
2020/07/06 08:33:09;;;;;;;2.4;1.2;;;;;;;17.77;100;957.6739;;;;
2020/07/06 08:35:34;;;;;;;1.5;0.8;;;;;;;17.7;100;957.6958;;;;
2020/07/06 08:37:59;;;;;;;3.4;1.4;;;;;;;17.57;100;957.6519;;;;
2020/07/06 08:40:26;;;;;;;1.7;1;;;;;;;17.69;100;957.6275;;;;
2020/07/06 08:42:51;;;;;;;2;1.2;;;;;;;17.66;100;957.7194;;;;
2020/07/06 08:45:16;;;;;;;2.4;1.1;;;;;;;17.68;100;957.6877;;;;
2020/07/06 08:47:41;;;;;;;1.4;1;;;;;;;17.52;100;957.6169;;;;
2020/07/06 08:50:06;;;;;;;2.2;1.1;;;;;;;17.48;100;957.7575;;;;
2020/07/06 08:52:33;;;;;;;1.5;1;;;;;;;17.54;100;957.7709;;;;
2020/07/06 08:54:58;;;;;;;1.7;1;;;;;;;17.54;100;957.7528;;;;
2020/07/06 08:57:26;;;;;;;2.7;1;;;;;;;17.28;100;957.7473;;;;
2020/07/06 08:59:51;;;;;;;1.3;1;;;;;;;17.39;100;957.8212;;;;
2020/07/06 09:02:16;;;;;;;1.5;1.1;;;;;;;17.47;100;957.7307;;;;
2020/07/06 09:04:44;;;;;;;2.2;1;;;;;;;17.33;100;957.7897;;;;
2020/07/06 09:07:09;;;;;;;1.8;0.9;;;;;;;17.46;100;957.8459;;;;
2020/07/06 09:09:35;;;;;;;2.5;1;;;;;;;17.25;100;957.7162;;;;
2020/07/06 09:12:00;;;;;;;2.6;0.9;;;;;;;17.48;100;957.7553;;;;
2020/07/06 09:14:25;;;;;;;1.3;0.9;;;;;;;17.42;100;957.7986;;;;
2020/07/06 09:16:50;;;;;;;1;0.9;;;;;;;17.68;100;957.8195;;;;
2020/07/06 09:19:16;;;;;;;3;1.1;;;;;;;17.35;100;957.8323;;;;
2020/07/06 09:21:41;;;;;;;1.5;0.8;;;;;;;17.13;100;957.7734;;;;
2020/07/06 09:24:07;;;;;;;2.9;1;;;;;;;17.27;100;957.858;;;;
2020/07/06 09:26:32;;;;;;;1.8;1;;;;;;;17.47;100;957.8864;;;;
2020/07/06 09:28:58;;;;;;;1.7;0.9;;;;;;;17.27;100;957.9278;;;;
2020/07/06 09:31:23;;;;;;;2.7;1;;;;;;;17.28;100;957.9589;;;;
2020/07/06 09:33:49;;;;;;;1.6;0.7;;;;;;;17.31;100;957.9925;;;;
2020/07/06 09:36:14;;;;;;;3.3;1;;;;;;;17.27;100;958.1149;;;;
2020/07/06 09:38:39;;;;;;;3.2;1.1;;;;;;;17.17;99.29785;958.0859;;;;
2020/07/06 09:41:05;;;;;;;3.9;1.1;;;;;;;16.99;98.35742;958.0925;;;;
2020/07/06 09:43:30;;;;;;;2.7;1;;;;;;;17.05;99.81836;958.115;;;;
2020/07/06 09:45:58;;;;;;;1.7;0.9;;;;;;;17.05;100;958.0327;;;;
2020/07/06 09:48:23;;;;;;;2.7;0.9;;;;;;;17.05;100;958.028;;;;
2020/07/06 09:50:49;;;;;;;1.9;1;;;;;;;16.96;100;957.8953;;;;
2020/07/06 09:53:14;;;;;;;2.1;1;;;;;;;17.37;100;957.9161;;;;
2020/07/06 09:55:41;;;;;;;2.5;1;;;;;;;17.64;98.63281;957.8735;;;;
2020/07/06 09:58:06;;;;;;;1.8;0.9;;;;;;;17.47;97.91504;957.8527;;;;
2020/07/06 10:00:31;;;;;;;1.7;0.9;;;;;;;16.91;97.7793;957.894;;;;
2020/07/06 10:02:56;;;;;;;2.3;1.1;;;;;;;16.96;100;957.8901;;;;
2020/07/06 10:07:28;;;;;;;3.3;1.1;;;;;;;16.84;98.06641;957.8428;;;;
2020/07/06 10:09:53;;;;;;;2.1;0.9;;;;;;;17.21;98.26563;957.7933;;;;
2020/07/06 10:12:18;;;;;;;2.9;1.2;;;;;;;16.94;96.38379;957.8033;;;;
2020/07/06 10:14:43;;;;;;;2.1;1.1;;;;;;;17.11;96.8418;957.7693;;;;
2020/07/06 10:17:09;;;;;;;4.1;1;;;;;;;17.36;92.15137;957.7516;;;;
2020/07/06 10:19:34;;;;;;;1.9;1.1;;;;;;;17.27;93.68457;957.7047;;;;
2020/07/06 10:22:00;;;;;;;2.1;1;;;;;;;17.44;91.02246;957.8109;;;;
2020/07/06 10:24:25;;;;;;;3.1;0.9;;;;;;;17.52;84.68848;957.8593;;;;
2020/07/06 10:26:51;;;;;;;2.4;0.9;;;;;;;17.7;88.26855;957.8176;;;;
2020/07/06 10:29:16;;;;;;;2.5;0.9;;;;;;;17.72;88.27148;957.8169;;;;
2020/07/06 10:31:43;;;;;;;3.4;1.1;;;;;;;17.43;90.09668;957.8503;;;;
2020/07/06 10:34:08;;;;;;;3.1;1.8;;;;;;;17.6;87.28711;957.9253;;;;
2020/07/06 10:36:33;;;;;;;3.6;1.1;;;;;;;17.61;87.81738;958.1295;;;;
2020/07/06 10:38:58;;;;;;;2.8;0.9;;;;;;;17.5;85.9834;958.2305;;;;
2020/07/06 10:41:25;;;;;;;2.5;1.1;;;;;;;17.6;87.10254;958.3019;;;;
2020/07/06 10:43:50;;;;;;;3.2;1.1;;;;;;;17.57;85.08301;958.4052;;;;
2020/07/06 10:46:17;;;;;;;4.3;1;;;;;;;17.63;85.30469;958.3725;;;;
2020/07/06 10:48:42;;;;;;;3.5;0.9;;;;;;;17.78;80.81934;958.4297;;;;
2020/07/06 10:51:08;;;;;;;2.9;0.9;;;;;;;17.46;85.33203;958.4063;;;;
2020/07/06 10:53:33;;;;;;;2.7;0.9;;;;;;;17.5;87.1875;958.3508;;;;
2020/07/06 10:56:02;;;;;;;2.1;0.9;;;;;;;17.53;87.125;958.2894;;;;
2020/07/06 10:58:27;;;;;;;3.4;1.2;;;;;;;17.57;91.78711;958.2378;;;;
2020/07/06 11:00:58;;;;;;;4.1;1.1;;;;;;;17.5;97.12598;958.3679;;;;
2020/07/06 11:03:24;;;;;;;4.2;1.1;;;;;;;17.31;100;958.3006;;;;
2020/07/06 11:05:49;;;;;;;4.3;1.3;;;;;;;17.18;100;958.2425;;;;
2020/07/06 11:08:15;;;;;;;4.9;1.8;;;;;;;17.23;100;958.2332;;;;
2020/07/06 11:10:40;;;;;;;2.6;1.2;;;;;;;17.4;100;958.1011;;;;
2020/07/06 11:13:06;;;;;;;2.3;1.2;;;;;;;17.17;100;958.0828;;;;
2020/07/06 11:15:32;;;;;;;3;1;;;;;;;17.41;100;958.1382;;;;
2020/07/06 11:17:57;;;;;;;2.6;1.2;;;;;;;17.26;100;958.1287;;;;
2020/07/06 11:20:22;;;;;;;1.9;1;;;;;;;17.48;100;958.0708;;;;
2020/07/06 11:22:48;;;;;;;6.3;1.4;;;;;;;17.9;100;957.9766;;;;
2020/07/06 11:25:13;;;;;;;2.6;1.2;;;;;;;18.11;100;958.0563;;;;
2020/07/06 11:27:40;;;;;;;5.5;1.5;;;;;;;18.03;100;957.9706;;;;
2020/07/06 11:30:05;;;;;;;3.2;1.2;;;;;;;18.09;100;958.0095;;;;
2020/07/06 11:32:30;;;;;;;3.1;1.5;;;;;;;18.3;100;958.0042;;;;
2020/07/06 11:34:57;;;;;;;4.6;1.7;;;;;;;18.43;100;958.0158;;;;
2020/07/06 11:37:22;;;;;;;3.5;1.5;;;;;;;18.11;100;957.9242;;;;
2020/07/06 11:39:50;;;;;;;3.4;1.5;;;;;;;18.47;100;957.9366;;;;
2020/07/06 11:42:15;;;;;;;2.8;1.2;;;;;;;18.12;100;957.9108;;;;
2020/07/06 11:44:42;;;;;;;2.4;1.3;;;;;;;17.95;100;957.8553;;;;
2020/07/06 11:47:07;;;;;;;3.6;1.3;;;;;;;18.3;100;957.8748;;;;
2020/07/06 11:49:34;;;;;;;4.1;1.3;;;;;;;17.96;100;957.7629;;;;
2020/07/06 11:51:58;;;;;;;6.2;1.6;;;;;;;18.27;100;957.772;;;;
2020/07/06 11:54:26;;;;;;;4.3;1.5;;;;;;;18.83;100;957.7748;;;;
2020/07/06 11:56:51;;;;;;;2.6;1.1;;;;;;;19.04;100;957.8025;;;;
2020/07/06 11:59:18;;;;;;;2.2;1;;;;;;;19.21;100;957.7502;;;;
2020/07/06 12:01:46;;;;;;;3.1;1.3;;;;;;;19.32;100;957.7472;;;;
2020/07/06 12:04:11;;;;;;;2.5;1.2;;;;;;;18.83;95.37988;957.7177;;;;
2020/07/06 12:06:37;;;;;;;2.2;1;;;;;;;19.51;92.25;957.7241;;;;
2020/07/06 12:09:02;;;;;;;2.9;0.9;;;;;;;19.52;77.28711;957.7866;;;;
2020/07/06 12:11:27;;;;;;;3.1;1;;;;;;;19.77;78.38574;957.84;;;;
2020/07/06 12:13:52;;;;;;;5.4;1.1;;;;;;;19.92;75.6748;957.7499;;;;
2020/07/06 12:16:20;;;;;;;3.7;1;;;;;;;20.18;66.69434;957.6967;;;;
2020/07/06 12:18:45;;;;;;;2.5;1;;;;;;;20.71;60.89648;957.7191;;;;
2020/07/06 12:21:11;;;;;;;1.5;0.7;;;;;;;20.5;60.68066;957.6845;;;;
2020/07/06 12:23:36;;;;;;;3.8;0.8;;;;;;;20.49;57.71094;957.6724;;;;
2020/07/06 12:26:03;;;;;;;2.7;0.9;;;;;;;20.22;57.54688;957.5815;;;;
2020/07/06 12:28:28;;;;;;;1.9;0.7;;;;;;;20.22;57.05371;957.5005;;;;
2020/07/06 12:30:56;;;;;;;2.8;0.8;;;;;;;20.58;54.41406;957.4867;;;;
2020/07/06 12:33:21;;;;;;;4.2;1;;;;;;;20.79;53.33301;957.5109;;;;
2020/07/06 12:35:46;;;;;;;3.9;0.9;;;;;;;21.21;53.28906;957.4959;;;;
2020/07/06 12:38:12;;;;;;;2.8;0.9;;;;;;;21.42;51.06152;957.5198;;;;
2020/07/06 12:40:41;;;;;;;3.1;0.9;;;;;;;21.65;50.52148;957.6124;;;;
2020/07/06 12:43:06;;;;;;;3.7;0.9;;;;;;;21.49;50.03027;957.6018;;;;
2020/07/06 12:45:35;;;;;;;1.8;0.8;;;;;;;21.78;48.42188;957.6164;;;;
2020/07/06 12:48:01;;;;;;;3.2;0.9;;;;;;;21.83;47.43457;957.6445;;;;
2020/07/06 12:50:27;;;;;;;1.4;0.6;;;;;;;21.93;49.17188;957.5978;;;;
2020/07/06 12:52:52;;;;;;;2.6;0.8;;;;;;;22.07;46.57422;957.6917;;;;
2020/07/06 12:55:20;;;;;;;2.3;0.6;;;;;;;21.85;42.52539;957.6524;;;;
2020/07/06 12:57:45;;;;;;;3;1;;;;;;;22.15;42.01074;957.6579;;;;
2020/07/06 13:00:13;;;;;;;2.3;0.6;;;;;;;21.85;40.93066;957.6242;;;;
2020/07/06 13:02:38;;;;;;;4;0.8;;;;;;;22.2;44.10645;957.7175;;;;
2020/07/06 13:05:04;;;;;;;3.4;0.9;;;;;;;22.29;40.92383;957.6426;;;;
2020/07/06 13:07:29;;;;;;;3;0.6;;;;;;;22.08;38.93164;957.6194;;;;
2020/07/06 13:09:58;;;;;;;2.5;0.8;;;;;;;22.41;41.19531;957.6735;;;;
2020/07/06 13:12:23;;;;;;;2.2;0.7;;;;;;;22.45;39.95703;957.5969;;;;
2020/07/06 13:14:48;;;;;;;2.6;1;;;;;;;22.51;40.60156;957.6539;;;;
2020/07/06 13:17:13;;;;;;;3.3;0.7;;;;;;;22.16;40.03711;957.7564;;;;
2020/07/06 13:19:40;;;;;;;4;0.9;;;;;;;22.08;39.73535;957.7081;;;;
2020/07/06 13:22:05;;;;;;;1.9;0.7;;;;;;;22.31;39.81543;957.7379;;;;
2020/07/06 13:24:41;;;;;;;3.1;0.8;;;;;;;22.49;39.81934;957.8056;;;;
2020/07/06 13:27:06;;;;;;;3.4;0.9;;;;;;;22.46;39.22559;957.8505;;;;
2020/07/06 13:29:31;;;;;;;2.1;0.6;;;;;;;22.29;39.39941;957.7776;;;;
2020/07/06 13:31:58;;;;;;;1.8;0.6;;;;;;;22.38;38.46191;957.9246;;;;
2020/07/06 13:34:23;;;;;;;2.6;0.8;;;;;;;22.41;39.19629;957.8524;;;;
2020/07/06 13:36:49;;;;;;;2.7;0.7;;;;;;;22.41;38.53516;957.882;;;;
2020/07/06 13:39:14;;;;;;;3.1;0.8;;;;;;;22.18;38.92871;957.9775;;;;
2020/07/06 13:41:40;;;;;;;4.8;0.9;;;;;;;22.31;38.82227;957.9813;;;;
2020/07/06 13:44:05;;;;;;;3.9;0.9;;;;;;;22.43;40.0498;957.9653;;;;
2020/07/06 13:46:33;;;;;;;3.4;0.8;;;;;;;22.47;39.00098;958.0754;;;;
2020/07/06 13:48:58;;;;;;;4.1;0.8;;;;;;;22.4;39.4209;958.0208;;;;
2020/07/06 13:51:23;;;;;;;5.2;0.8;;;;;;;22.02;37.35547;958.0111;;;;
2020/07/06 13:53:48;;;;;;;2;0.8;;;;;;;22.14;38.47656;957.9562;;;;
2020/07/06 13:56:14;;;;;;;2.8;0.7;;;;;;;22.15;39.48145;958.0272;;;;
2020/07/06 13:58:39;;;;;;;2.7;0.7;;;;;;;22;39.62207;958.0637;;;;
2020/07/06 14:01:04;;;;;;;3.9;0.9;;;;;;;22.31;38.06543;958.0701;;;;
2020/07/06 14:03:29;;;;;;;6.3;1;;;;;;;22.47;39.35547;957.9578;;;;
2020/07/06 14:05:54;;;;;;;4.3;1;;;;;;;22.65;38.72168;958.1591;;;;
2020/07/06 14:08:20;;;;;;;4.1;0.9;;;;;;;22.6;37.65234;958.0958;;;;
2020/07/06 14:10:45;;;;;;;5;0.8;;;;;;;22.71;37.82715;958.1587;;;;
2020/07/06 14:13:11;;;;;;;2.1;0.8;;;;;;;22.7;38.5127;958.1672;;;;
2020/07/06 14:15:36;;;;;;;8.7;1.2;;;;;;;22.69;37.99121;958.073;;;;
2020/07/06 14:18:02;;;;;;;4.3;0.8;;;;;;;22.56;38.24121;958.0552;;;;
2020/07/06 14:20:27;;;;;;;3.2;0.9;;;;;;;22.66;38.6748;958.1841;;;;
2020/07/06 14:22:54;;;;;;;3.6;0.9;;;;;;;22.7;39.28223;958.2355;;;;
2020/07/06 14:25:19;;;;;;;4.6;1;;;;;;;22.44;38.79785;958.0938;;;;
2020/07/06 14:27:45;;;;;;;3.3;0.8;;;;;;;22.3;39.67188;958.1172;;;;
2020/07/06 14:30:10;;;;;;;5.2;1;;;;;;;22.36;40.375;958.2366;;;;
2020/07/06 14:32:36;;;;;;;4.9;1;;;;;;;22.4;40.83887;958.1166;;;;
2020/07/06 14:35:01;;;;;;;3.9;1.3;;;;;;;21.91;40.33398;958.1411;;;;
2020/07/06 14:37:26;;;;;;;5;0.9;;;;;;;22.1;40.82422;958.231;;;;
2020/07/06 14:39:51;;;;;;;3.9;1;;;;;;;21.62;40.2373;958.0958;;;;
2020/07/06 14:42:16;;;;;;;4.4;1;;;;;;;22.05;41.32813;958.1283;;;;
2020/07/06 14:44:41;;;;;;;3.3;1;;;;;;;22.33;40.55078;958.1152;;;;
2020/07/06 14:47:06;;;;;;;4.1;1;;;;;;;22.02;40.96973;958.0966;;;;
2020/07/06 14:49:31;;;;;;;6;1.2;;;;;;;21.99;41.61719;958.0452;;;;
2020/07/06 14:51:56;;;;;;;4.4;1.1;;;;;;;22.19;41.45898;958.0369;;;;
2020/07/06 14:54:23;;;;;;;8.3;1.6;;;;;;;21.97;42.09961;958.1578;;;;
2020/07/06 14:56:48;;;;;;;5.8;1.1;;;;;;;22.06;42.25;958.219;;;;
2020/07/06 14:59:14;;;;;;;9.4;1.2;;;;;;;22.17;41.95313;958.2272;;;;
2020/07/06 15:01:39;;;;;;;5.7;1.2;;;;;;;21.97;42.7959;958.235;;;;
2020/07/06 15:04:05;;;;;;;5.4;1.1;;;;;;;21.77;42.37598;958.4882;;;;
2020/07/06 15:06:30;;;;;;;4;1.4;;;;;;;21.86;42.59668;958.2993;;;;
2020/07/06 15:09:05;;;;;;;5.6;1.2;;;;;;;21.75;42.81152;958.4375;;;;
2020/07/06 15:11:31;;;;;;;4;1.1;;;;;;;21.77;42.51758;958.427;;;;
2020/07/06 15:13:56;;;;;;;6.1;1.3;;;;;;;22.2;42.39355;958.3225;;;;